Time;durP1;ratioP1;P1;durP2;ratioP2;P2;SDS_P1;SDS_P2;PMS_P1;PMS_P2;Temp;Humidity;BMP_temperature;BMP_pressure;BME280_temperature;BME280_humidity;BME280_pressure;Samples;Min_cycle;Max_cycle;Signal;HPM_P1;HPM_P2
2023/03/13 00:00:22;;;;;;;17.23;5.57;;;;;;;8.39;100.00;100143.31;1044734;28;20291;-74
2023/03/13 00:00:55;;;;;;;19.90;4.68;;;;;;;8.36;100.00;100134.75;1042835;28;20318;-73
2023/03/13 00:01:37;;;;;;;22.42;4.90;;;;;;;8.42;100.00;100143.69;1040138;28;20295;-73
2023/03/13 00:02:09;;;;;;;19.83;4.43;;;;;;;8.38;100.00;100141.69;1042065;28;20311;-73
2023/03/13 00:02:44;;;;;;;29.20;4.95;;;;;;;8.35;100.00;100138.44;1044261;28;20297;-74
2023/03/13 00:03:15;;;;;;;23.60;5.72;;;;;;;8.41;100.00;100126.13;1042772;28;20300;-73
2023/03/13 00:03:48;;;;;;;18.48;4.53;;;;;;;8.32;100.00;100136.22;1040644;28;20313;-73
2023/03/13 00:04:20;;;;;;;26.48;5.50;;;;;;;8.33;100.00;100139.66;1040067;28;20804;-73
2023/03/13 00:04:51;;;;;;;20.65;4.93;;;;;;;8.35;100.00;100132.34;1041391;28;20355;-74
2023/03/13 00:05:23;;;;;;;21.05;4.88;;;;;;;8.32;100.00;100133.56;1043305;28;20314;-73
2023/03/13 00:05:56;;;;;;;20.33;4.47;;;;;;;8.34;100.00;100126.22;1043853;28;20330;-73
2023/03/13 00:06:31;;;;;;;18.33;5.75;;;;;;;8.34;100.00;100120.09;1047281;28;20661;-73
2023/03/13 00:07:03;;;;;;;19.05;4.72;;;;;;;8.36;100.00;100128.66;1048908;28;20341;-74
2023/03/13 00:07:35;;;;;;;25.25;4.50;;;;;;;8.31;100.00;100121.31;1048590;28;20302;-73
2023/03/13 00:08:06;;;;;;;27.15;7.40;;;;;;;8.32;100.00;100117.63;1047921;28;20298;-73
2023/03/13 00:08:38;;;;;;;26.48;6.63;;;;;;;8.34;100.00;100109.47;1047958;28;20310;-74
2023/03/13 00:09:12;;;;;;;19.80;5.03;;;;;;;8.31;100.00;100115.19;1045216;28;20298;-73
2023/03/13 00:09:44;;;;;;;26.05;6.47;;;;;;;8.36;100.00;100108.22;1039967;28;20349;-74
2023/03/13 00:10:16;;;;;;;24.13;5.50;;;;;;;8.36;100.00;100110.06;1042775;28;20402;-73
2023/03/13 00:10:47;;;;;;;27.63;5.65;;;;;;;8.30;100.00;100109.09;1044168;28;20303;-74
2023/03/13 00:11:19;;;;;;;29.17;5.85;;;;;;;8.27;100.00;100106.06;1044173;28;20634;-73
2023/03/13 00:11:50;;;;;;;15.95;4.93;;;;;;;8.30;100.00;100109.09;1044224;28;20311;-73
2023/03/13 00:12:22;;;;;;;20.17;5.57;;;;;;;8.30;100.00;100111.72;1044278;28;20829;-74
2023/03/13 00:12:54;;;;;;;26.30;5.45;;;;;;;8.26;100.00;100102.59;1047819;28;20702;-73
2023/03/13 00:13:25;;;;;;;24.50;7.10;;;;;;;8.32;100.00;100096.41;1045021;28;20844;-73
2023/03/13 00:13:59;;;;;;;25.23;6.13;;;;;;;8.27;100.00;100103.41;1044395;28;20681;-73
2023/03/13 00:14:30;;;;;;;22.35;5.10;;;;;;;8.22;100.00;100096.09;1044525;28;20390;-73
2023/03/13 00:15:02;;;;;;;24.98;6.95;;;;;;;8.19;100.00;100093.88;1044498;28;20300;-73
2023/03/13 00:15:34;;;;;;;21.02;6.45;;;;;;;8.15;100.00;100108.59;1044645;28;20298;-73
2023/03/13 00:16:11;;;;;;;26.30;6.43;;;;;;;8.10;100.00;100097.84;1042003;28;20300;-73
2023/03/13 00:16:42;;;;;;;20.48;5.72;;;;;;;8.14;100.00;100092.91;1044324;28;20314;-73
2023/03/13 00:17:15;;;;;;;24.20;6.28;;;;;;;8.11;100.00;100096.00;1039793;28;20844;-73
2023/03/13 00:17:46;;;;;;;20.17;6.70;;;;;;;8.15;100.00;100099.81;1035818;28;20304;-73
2023/03/13 00:18:18;;;;;;;15.85;4.93;;;;;;;8.21;100.00;100099.75;1036019;28;20783;-74
2023/03/13 00:18:51;;;;;;;21.95;6.47;;;;;;;8.17;100.00;100093.28;1042997;28;20291;-74
2023/03/13 00:19:23;;;;;;;21.30;5.00;;;;;;;8.18;100.00;100086.94;1040369;28;20401;-73
2023/03/13 00:19:54;;;;;;;18.55;5.18;;;;;;;8.17;100.00;100098.56;1044899;28;20320;-73
2023/03/13 00:20:26;;;;;;;23.63;5.68;;;;;;;8.18;100.00;100089.59;1048292;28;20290;-73
2023/03/13 00:20:59;;;;;;;20.23;4.63;;;;;;;8.13;100.00;100086.78;1048046;28;20379;-74
2023/03/13 00:21:31;;;;;;;21.77;7.00;;;;;;;8.17;100.00;100082.66;1048309;28;20295;-73
2023/03/13 00:22:03;;;;;;;17.77;4.65;;;;;;;8.22;100.00;100077.53;1041890;28;20662;-74
2023/03/13 00:22:35;;;;;;;19.27;4.60;;;;;;;8.16;100.00;100086.34;1043784;28;20449;-73
2023/03/13 00:23:07;;;;;;;20.42;5.38;;;;;;;8.18;100.00;100084.28;1044594;28;20298;-73
2023/03/13 00:23:39;;;;;;;20.20;5.30;;;;;;;8.23;100.00;100075.69;1042061;28;20302;-73
2023/03/13 00:24:11;;;;;;;24.52;4.50;;;;;;;8.22;100.00;100077.53;1044020;28;20310;-73
2023/03/13 00:24:45;;;;;;;24.45;7.20;;;;;;;8.29;100.00;100072.97;1043909;28;20291;-73
2023/03/13 00:25:16;;;;;;;24.20;6.40;;;;;;;8.15;100.00;100078.59;1044405;28;20814;-73
2023/03/13 00:25:55;;;;;;;23.77;5.40;;;;;;;8.17;100.00;100071.25;1048047;28;20306;-73
2023/03/13 00:26:27;;;;;;;25.27;6.10;;;;;;;8.12;100.00;100063.94;1048179;28;20827;-73
2023/03/13 00:27:02;;;;;;;20.10;4.65;;;;;;;8.18;100.00;100067.56;1044576;28;20372;-73
2023/03/13 00:27:33;;;;;;;14.57;4.15;;;;;;;8.08;100.00;100065.41;1043792;28;20299;-74
2023/03/13 00:28:05;;;;;;;28.95;4.88;;;;;;;8.06;100.00;100064.81;1044296;28;20368;-73
2023/03/13 00:28:38;;;;;;;24.92;5.72;;;;;;;8.09;100.00;100066.22;1044309;28;20295;-73
2023/03/13 00:29:10;;;;;;;13.25;4.93;;;;;;;8.04;100.00;100057.09;1043987;28;20322;-73
2023/03/13 00:29:42;;;;;;;19.15;4.88;;;;;;;8.08;100.00;100062.75;1040081;28;20300;-73
2023/03/13 00:30:13;;;;;;;27.13;5.20;;;;;;;8.06;100.00;100056.88;1044082;28;20894;-73
2023/03/13 00:30:45;;;;;;;21.33;5.47;;;;;;;8.06;100.00;100059.53;1042717;28;20812;-73
2023/03/13 00:31:21;;;;;;;19.70;5.10;;;;;;;8.04;100.00;100057.09;1043940;28;20855;-73
2023/03/13 00:31:53;;;;;;;19.73;4.25;;;;;;;8.10;100.00;100050.09;1043964;28;20665;-73
2023/03/13 00:32:25;;;;;;;18.80;4.88;;;;;;;8.11;100.00;100051.72;1044513;28;20374;-74
2023/03/13 00:32:57;;;;;;;18.52;5.03;;;;;;;8.04;100.00;100058.94;1044219;28;20401;-73
2023/03/13 00:33:28;;;;;;;19.52;5.65;;;;;;;8.13;100.00;100054.16;1047231;28;20313;-73
2023/03/13 00:34:01;;;;;;;24.73;5.55;;;;;;;8.16;100.00;100054.50;1048368;28;20301;-73
2023/03/13 00:34:33;;;;;;;22.85;5.95;;;;;;;8.05;100.00;100052.59;1043993;28;20327;-74
2023/03/13 00:35:05;;;;;;;21.75;5.00;;;;;;;8.09;100.00;100048.47;1043900;28;20307;-73
2023/03/13 00:35:37;;;;;;;18.67;4.72;;;;;;;8.14;100.00;100051.28;1040835;28;20303;-73
2023/03/13 00:36:11;;;;;;;24.70;5.88;;;;;;;8.11;100.00;100046.41;1044891;28;20303;-73
2023/03/13 00:36:44;;;;;;;23.33;5.30;;;;;;;8.18;100.00;100038.38;1043843;28;20299;-73
2023/03/13 00:37:15;;;;;;;14.27;4.07;;;;;;;8.06;100.00;100035.66;1044819;28;20306;-73
2023/03/13 00:37:47;;;;;;;35.17;5.68;;;;;;;8.04;100.00;100038.53;1044444;28;20295;-73
2023/03/13 00:38:18;;;;;;;16.95;4.97;;;;;;;8.00;100.00;100039.19;1043690;28;20299;-73
2023/03/13 00:38:51;;;;;;;16.80;4.32;;;;;;;8.00;100.00;100039.19;1044328;28;20785;-73
2023/03/13 00:39:23;;;;;;;22.65;5.90;;;;;;;8.02;100.00;100032.63;1044295;28;20295;-74
2023/03/13 00:39:55;;;;;;;20.00;5.00;;;;;;;7.99;100.00;100037.56;1043880;28;20298;-73
2023/03/13 00:40:26;;;;;;;27.60;4.40;;;;;;;7.99;100.00;100037.56;1039588;28;20299;-73
2023/03/13 00:41:00;;;;;;;12.77;5.35;;;;;;;7.99;100.00;100032.25;1039915;28;20674;-74
2023/03/13 00:41:32;;;;;;;22.70;5.82;;;;;;;7.99;100.00;100032.25;1036780;28;20882;-74
2023/03/13 00:42:04;;;;;;;19.42;4.85;;;;;;;7.98;100.00;100030.63;1039691;28;20295;-74
2023/03/13 00:42:36;;;;;;;21.23;5.22;;;;;;;8.02;100.00;100027.31;1040445;28;20427;-73
2023/03/13 00:43:07;;;;;;;21.65;4.72;;;;;;;8.14;100.00;100030.06;1044029;28;20287;-73
2023/03/13 00:43:40;;;;;;;27.63;5.88;;;;;;;8.15;100.00;100031.66;1043943;28;20299;-74
2023/03/13 00:44:13;;;;;;;23.92;7.15;;;;;;;8.11;100.00;100025.19;1043964;28;20357;-73
2023/03/13 00:44:44;;;;;;;25.35;4.47;;;;;;;8.12;100.00;100023.34;1040087;28;20331;-73
2023/03/13 00:45:16;;;;;;;16.67;5.32;;;;;;;8.05;100.00;100026.06;1039396;28;20340;-73
2023/03/13 00:45:47;;;;;;;21.55;5.18;;;;;;;8.08;100.00;100025.63;1039845;28;20296;-73
2023/03/13 00:46:22;;;;;;;22.83;6.57;;;;;;;8.02;100.00;100019.38;1040493;28;20276;-74
2023/03/13 00:46:53;;;;;;;24.40;5.50;;;;;;;8.05;100.00;100020.78;1043995;28;20283;-73
2023/03/13 00:47:25;;;;;;;16.98;4.70;;;;;;;8.04;100.00;100019.16;1044062;28;20358;-74
2023/03/13 00:47:57;;;;;;;18.88;5.30;;;;;;;8.17;100.00;100020.84;1043778;28;20298;-74
2023/03/13 00:48:28;;;;;;;18.42;4.75;;;;;;;8.18;100.00;100011.84;1044540;28;20295;-74
2023/03/13 00:49:00;;;;;;;16.40;4.78;;;;;;;8.13;100.00;100017.81;1044133;28;20299;-73
2023/03/13 00:49:32;;;;;;;16.60;4.18;;;;;;;8.19;100.00;100022.25;1044122;28;20306;-73
2023/03/13 00:50:03;;;;;;;20.45;4.13;;;;;;;8.21;100.00;100019.38;1044550;28;20291;-73
2023/03/13 00:50:35;;;;;;;20.50;5.38;;;;;;;8.19;100.00;100022.25;1043868;28;20299;-73
2023/03/13 00:51:07;;;;;;;18.88;4.63;;;;;;;8.16;100.00;100020.03;1043828;28;20303;-73
2023/03/13 00:51:39;;;;;;;28.92;5.03;;;;;;;8.11;100.00;100019.06;1039760;28;20304;-73
2023/03/13 00:52:10;;;;;;;20.25;5.32;;;;;;;8.25;100.00;100010.78;1035402;28;20377;-73
2023/03/13 00:52:42;;;;;;;18.40;5.43;;;;;;;8.15;100.00;100021.06;1035727;28;20307;-73
2023/03/13 00:53:14;;;;;;;26.50;6.55;;;;;;;8.10;100.00;100012.97;1036392;28;20304;-73
2023/03/13 00:53:45;;;;;;;29.27;5.38;;;;;;;8.14;100.00;100014.13;1044232;28;20342;-73
2023/03/13 00:54:17;;;;;;;20.95;4.93;;;;;;;8.17;100.00;100008.38;1039245;28;20717;-73
2023/03/13 00:54:48;;;;;;;15.40;4.68;;;;;;;8.12;100.00;100021.50;1039784;28;20300;-73
2023/03/13 00:55:20;;;;;;;18.23;4.65;;;;;;;8.18;100.00;100015.31;1035825;28;20297;-74
2023/03/13 00:55:53;;;;;;;21.23;5.85;;;;;;;8.19;100.00;100008.97;1036298;28;20304;-74
2023/03/13 00:56:24;;;;;;;25.38;5.65;;;;;;;8.15;100.00;100015.75;1042700;28;20302;-74
2023/03/13 00:56:56;;;;;;;20.33;7.20;;;;;;;8.13;100.00;100015.16;1040586;28;20631;-73
2023/03/13 00:57:28;;;;;;;22.63;5.78;;;;;;;8.18;100.00;100010.00;1043817;28;20708;-74
2023/03/13 00:57:59;;;;;;;25.65;6.10;;;;;;;8.15;100.00;100009.66;1043988;28;20449;-73
2023/03/13 00:58:34;;;;;;;16.45;5.22;;;;;;;8.14;100.00;100003.53;1044268;28;20291;-74
2023/03/13 00:59:06;;;;;;;22.27;6.15;;;;;;;8.07;100.00;100000.13;1044023;28;20306;-73
2023/03/13 00:59:37;;;;;;;19.08;4.80;;;;;;;8.14;100.00;100002.72;1039629;28;20295;-73
2023/03/13 01:00:10;;;;;;;21.73;5.18;;;;;;;8.13;100.00;100007.22;1036393;28;20325;-73
2023/03/13 01:00:41;;;;;;;21.92;5.72;;;;;;;8.14;100.00;100008.03;1038727;28;20299;-74
2023/03/13 01:01:19;;;;;;;17.63;4.50;;;;;;;8.12;100.00;100000.28;1036278;28;20292;-73
2023/03/13 01:01:50;;;;;;;18.95;4.72;;;;;;;8.07;100.00;99997.50;1039330;28;20307;-74
2023/03/13 01:02:22;;;;;;;15.85;4.88;;;;;;;8.16;100.00;99998.00;1039790;28;20303;-73
2023/03/13 01:02:54;;;;;;;21.10;6.70;;;;;;;8.10;100.00;99991.75;1035718;28;20332;-73
2023/03/13 01:03:25;;;;;;;25.77;5.25;;;;;;;8.04;100.00;99996.09;1035809;28;21009;-74
2023/03/13 01:04:00;;;;;;;21.80;5.65;;;;;;;8.06;100.00;99991.38;1036000;28;20339;-74
2023/03/13 01:04:34;;;;;;;19.58;4.60;;;;;;;8.10;100.00;99994.38;1040671;28;20304;-74
2023/03/13 01:05:06;;;;;;;17.73;4.55;;;;;;;8.10;100.00;99991.75;1039882;28;20662;-73
2023/03/13 01:05:37;;;;;;;14.10;5.32;;;;;;;8.05;100.00;99988.94;1039583;28;20304;-73
2023/03/13 01:06:12;;;;;;;20.10;5.15;;;;;;;8.13;100.00;99991.28;1040640;28;20662;-73
2023/03/13 01:06:44;;;;;;;12.05;4.45;;;;;;;8.14;100.00;99992.09;1035845;28;20304;-73
2023/03/13 01:07:15;;;;;;;22.05;5.82;;;;;;;8.08;100.00;99988.50;1042324;28;20299;-74
2023/03/13 01:07:47;;;;;;;21.23;5.55;;;;;;;8.12;100.00;99979.06;1039708;28;20782;-73
2023/03/13 01:08:19;;;;;;;26.75;4.32;;;;;;;8.16;100.00;99985.53;1036103;28;20319;-73
2023/03/13 01:08:50;;;;;;;19.77;4.13;;;;;;;8.19;100.00;99979.78;1043681;28;20334;-73
2023/03/13 01:09:22;;;;;;;30.30;5.95;;;;;;;8.15;100.00;99975.97;1046230;28;20819;-74
2023/03/13 01:09:53;;;;;;;25.80;5.88;;;;;;;8.12;100.00;99979.06;1043901;28;20713;-73
2023/03/13 01:10:25;;;;;;;18.58;5.05;;;;;;;8.08;100.00;99988.50;1044195;28;20306;-74
2023/03/13 01:11:11;;;;;;;15.10;4.18;;;;;;;8.07;100.00;99981.56;1044011;28;20306;-73
2023/03/13 01:11:44;;;;;;;12.02;4.60;;;;;;;8.06;100.00;99972.81;1039900;28;20312;-73
2023/03/13 01:12:17;;;;;;;14.93;4.95;;;;;;;8.08;100.00;99964.63;1040783;28;20296;-73
2023/03/13 01:12:48;;;;;;;16.75;4.63;;;;;;;8.07;100.00;99965.66;1043849;28;20303;-73
2023/03/13 01:13:20;;;;;;;17.73;4.90;;;;;;;8.11;100.00;99972.13;1041160;28;20300;-73
2023/03/13 01:14:00;;;;;;;17.02;4.93;;;;;;;8.12;100.00;99963.16;1048290;28;20288;-74
2023/03/13 01:14:31;;;;;;;19.38;4.55;;;;;;;8.10;100.00;99975.81;1039690;28;20311;-73
2023/03/13 01:15:03;;;;;;;26.33;7.03;;;;;;;8.08;100.00;99959.31;1039767;28;20308;-73
2023/03/13 01:15:35;;;;;;;21.75;6.88;;;;;;;8.05;100.00;99957.94;1039789;28;20308;-74
2023/03/13 01:16:19;;;;;;;16.90;4.80;;;;;;;8.05;100.00;99959.78;1040690;28;20311;-73
2023/03/13 01:16:50;;;;;;;16.13;5.50;;;;;;;8.04;100.00;99966.09;1043805;28;20303;-74
2023/03/13 01:17:22;;;;;;;24.17;5.35;;;;;;;8.01;100.00;99959.41;1044013;28;20302;-73
2023/03/13 01:17:53;;;;;;;29.38;6.38;;;;;;;8.04;100.00;99960.81;1039390;28;20813;-74
2023/03/13 01:18:25;;;;;;;21.95;4.70;;;;;;;8.05;100.00;99957.94;1039288;28;20821;-73
2023/03/13 01:19:03;;;;;;;24.80;5.85;;;;;;;8.11;100.00;99950.91;1039769;28;20332;-73
2023/03/13 01:19:34;;;;;;;14.85;4.35;;;;;;;8.05;100.00;99943.84;1035417;28;20301;-73
2023/03/13 01:20:07;;;;;;;17.35;5.93;;;;;;;8.06;100.00;99942.81;1033313;28;20637;-73
2023/03/13 01:20:39;;;;;;;13.18;4.30;;;;;;;8.09;100.00;99939.72;1036601;28;20297;-73
2023/03/13 01:21:12;;;;;;;17.58;4.50;;;;;;;8.02;100.00;99939.00;1037117;28;20436;-73
2023/03/13 01:21:45;;;;;;;28.00;6.90;;;;;;;8.07;100.00;99934.66;1039541;28;20300;-73
2023/03/13 01:22:16;;;;;;;16.88;4.43;;;;;;;8.11;100.00;99929.72;1034826;28;20802;-74
2023/03/13 01:22:48;;;;;;;14.77;5.88;;;;;;;8.05;100.00;99935.91;1035017;28;20321;-73
2023/03/13 01:23:19;;;;;;;19.67;7.00;;;;;;;8.02;100.00;99931.03;1035393;28;20308;-74
2023/03/13 01:23:52;;;;;;;27.50;6.40;;;;;;;8.01;100.00;99930.22;1036327;28;20312;-74
2023/03/13 01:24:24;;;;;;;18.67;4.07;;;;;;;8.09;100.00;99929.13;1035406;28;20447;-73
2023/03/13 01:24:55;;;;;;;24.70;5.38;;;;;;;8.08;100.00;99927.50;1036424;28;20322;-73
2023/03/13 01:25:27;;;;;;;21.42;4.65;;;;;;;8.03;100.00;99911.44;1039101;28;20315;-74
2023/03/13 01:25:58;;;;;;;20.70;4.85;;;;;;;7.99;100.00;99923.53;1035250;28;20312;-73
2023/03/13 01:26:30;;;;;;;17.80;4.95;;;;;;;7.97;100.00;99923.75;1042458;28;20327;-73
2023/03/13 01:27:03;;;;;;;21.98;4.80;;;;;;;8.04;100.00;99921.03;1043665;28;20476;-73
2023/03/13 01:27:34;;;;;;;17.58;4.47;;;;;;;7.97;100.00;99922.94;1041058;28;20292;-74
2023/03/13 01:28:06;;;;;;;20.58;5.50;;;;;;;7.96;100.00;99911.53;1043347;28;20389;-73
2023/03/13 01:28:38;;;;;;;17.67;5.00;;;;;;;8.06;100.00;99917.13;1042084;28;20319;-74
2023/03/13 01:29:09;;;;;;;18.08;5.03;;;;;;;7.99;100.00;99915.56;1038965;28;20574;-74
2023/03/13 01:29:41;;;;;;;21.85;5.28;;;;;;;7.97;100.00;99922.94;1040148;28;20312;-74
2023/03/13 01:30:13;;;;;;;24.83;5.30;;;;;;;7.98;100.00;99908.66;1040278;28;20685;-74
2023/03/13 01:30:44;;;;;;;21.13;4.90;;;;;;;7.95;100.00;99909.09;1043269;28;20862;-74
2023/03/13 01:31:22;;;;;;;28.20;5.32;;;;;;;8.02;100.00;99915.13;1042327;28;20295;-73
2023/03/13 01:31:54;;;;;;;22.10;5.38;;;;;;;8.00;100.00;99912.69;1043962;28;20287;-74
2023/03/13 01:32:25;;;;;;;18.25;4.97;;;;;;;8.13;100.00;99910.91;1043882;28;20299;-74
2023/03/13 01:32:58;;;;;;;23.05;6.32;;;;;;;8.03;100.00;99898.19;1043387;28;20685;-74
2023/03/13 01:33:29;;;;;;;23.20;5.53;;;;;;;8.01;100.00;99902.91;1040629;28;20311;-73
2023/03/13 01:34:03;;;;;;;17.95;4.97;;;;;;;8.01;100.00;99900.25;1040118;28;20303;-73
2023/03/13 01:34:35;;;;;;;17.63;4.78;;;;;;;8.07;100.00;99897.50;1039964;28;20378;-73
2023/03/13 01:35:07;;;;;;;16.60;4.88;;;;;;;8.14;100.00;99892.13;1039637;28;20311;-73
2023/03/13 01:35:41;;;;;;;14.77;5.40;;;;;;;8.06;100.00;99901.19;1035464;28;20325;-74
2023/03/13 01:36:13;;;;;;;24.88;4.60;;;;;;;8.04;100.00;99887.34;1033146;28;20332;-74
2023/03/13 01:36:49;;;;;;;24.60;5.78;;;;;;;8.02;100.00;99891.25;1037211;28;20304;-74
2023/03/13 01:37:20;;;;;;;23.50;5.00;;;;;;;8.07;100.00;99894.06;1036674;28;20758;-73
2023/03/13 01:37:52;;;;;;;21.45;4.65;;;;;;;8.02;100.00;99889.41;1039448;28;20292;-73
2023/03/13 01:38:24;;;;;;;19.45;5.22;;;;;;;7.99;100.00;99889.06;1037419;28;20308;-73
2023/03/13 01:38:57;;;;;;;22.23;5.65;;;;;;;8.02;100.00;99885.97;1040476;28;20311;-74
2023/03/13 01:39:29;;;;;;;19.48;5.55;;;;;;;7.99;100.00;99884.56;1043430;28;20381;-73
2023/03/13 01:40:01;;;;;;;21.58;5.25;;;;;;;8.03;100.00;99879.63;1044311;28;20311;-73
2023/03/13 01:41:02;;;;;;;19.55;4.70;;;;;;;7.98;100.00;99888.25;1047890;28;20796;-73
2023/03/13 01:41:34;;;;;;;19.58;5.88;;;;;;;7.94;100.00;99886.25;1043443;28;20283;-73
2023/03/13 01:42:06;;;;;;;25.83;6.50;;;;;;;7.95;100.00;99871.97;1048044;28;20055;-74
2023/03/13 01:42:52;;;;;;;26.55;6.93;;;;;;;8.01;100.00;99881.69;1043654;28;20299;-73
2023/03/13 01:43:28;;;;;;;17.23;4.10;;;;;;;7.96;100.00;99885.00;1042165;28;20307;-74
2023/03/13 01:44:03;;;;;;;17.25;4.38;;;;;;;7.97;100.00;99880.53;1033366;28;20309;-73
2023/03/13 01:44:54;;;;;;;20.05;6.32;;;;;;;8.03;100.00;99880.44;1033999;28;20308;-74
2023/03/13 01:45:48;;;;;;;21.30;5.35;;;;;;;8.05;100.00;99872.25;1031185;28;20843;-73
2023/03/13 01:46:23;;;;;;;26.88;4.53;;;;;;;8.03;100.00;99879.63;1035351;28;20961;-73
2023/03/13 01:46:58;;;;;;;20.52;4.93;;;;;;;8.06;100.00;99869.38;1039742;28;20331;-73
2023/03/13 01:47:29;;;;;;;15.98;4.55;;;;;;;8.03;100.00;99863.72;1044033;28;20283;-73
2023/03/13 01:48:11;;;;;;;19.08;4.60;;;;;;;8.06;100.00;99855.31;1035087;28;20300;-73
2023/03/13 01:48:53;;;;;;;13.93;4.95;;;;;;;8.04;100.00;99854.72;1035273;28;20305;-73
2023/03/13 01:49:29;;;;;;;18.08;4.70;;;;;;;8.03;100.00;99850.44;1035150;28;20056;-73
2023/03/13 01:50:12;;;;;;;18.20;6.45;;;;;;;8.07;100.00;99857.72;1031564;28;20394;-73
2023/03/13 01:51:00;;;;;;;22.67;4.57;;;;;;;8.01;100.00;99863.13;1031815;28;20514;-73
2023/03/13 01:51:36;;;;;;;15.05;6.18;;;;;;;8.08;100.00;99861.19;1031540;28;20308;-73
2023/03/13 01:52:34;;;;;;;16.48;6.40;;;;;;;8.06;100.00;99852.66;1038739;28;20323;-73
2023/03/13 01:53:11;;;;;;;16.60;4.53;;;;;;;8.16;100.00;99852.09;1030796;28;20384;-73
2023/03/13 01:53:45;;;;;;;21.10;4.45;;;;;;;8.11;100.00;99849.31;1035582;28;20715;-73
2023/03/13 01:54:28;;;;;;;19.38;4.43;;;;;;;8.08;100.00;99850.59;1029064;28;20298;-73
2023/03/13 01:55:11;;;;;;;18.23;4.97;;;;;;;8.04;100.00;99836.16;1032045;28;20654;-73
2023/03/13 01:55:45;;;;;;;19.35;4.63;;;;;;;8.08;100.00;99837.31;1035400;28;20316;-73
2023/03/13 01:56:22;;;;;;;14.20;4.65;;;;;;;8.02;100.00;99831.09;1035486;28;20309;-73
2023/03/13 01:56:55;;;;;;;21.05;5.00;;;;;;;8.07;100.00;99836.50;1030819;28;20328;-73
2023/03/13 01:57:33;;;;;;;16.13;4.90;;;;;;;8.09;100.00;99830.97;1026195;28;20838;-73
2023/03/13 01:58:04;;;;;;;19.55;5.70;;;;;;;8.00;100.00;99827.84;1027485;28;20655;-73
2023/03/13 01:58:37;;;;;;;17.00;5.68;;;;;;;8.02;100.00;99830.28;1034090;28;20302;-73
2023/03/13 01:59:10;;;;;;;16.05;4.88;;;;;;;8.02;100.00;99830.28;1039240;28;20674;-72
2023/03/13 02:00:11;;;;;;;16.77;6.22;;;;;;;8.12;100.00;99830.53;1035653;28;20307;-73
2023/03/13 02:00:44;;;;;;;18.25;6.15;;;;;;;8.03;100.00;99834.53;1035115;28;20328;-73
2023/03/13 02:01:17;;;;;;;19.08;6.32;;;;;;;8.13;100.00;99829.50;1040207;28;20534;-73
2023/03/13 02:01:50;;;;;;;13.30;4.15;;;;;;;8.07;100.00;99827.75;1043604;28;20314;-73
2023/03/13 02:02:22;;;;;;;20.92;4.60;;;;;;;8.04;100.00;99822.91;1035315;28;20308;-73
2023/03/13 02:02:56;;;;;;;20.02;4.75;;;;;;;8.07;100.00;99828.56;1035199;28;20957;-73
2023/03/13 02:03:28;;;;;;;15.95;4.97;;;;;;;8.00;100.00;99827.84;1035381;28;20838;-73
2023/03/13 02:04:03;;;;;;;19.08;4.78;;;;;;;8.08;100.00;99818.75;1035383;28;20387;-74
2023/03/13 02:04:41;;;;;;;26.17;5.82;;;;;;;8.03;100.00;99826.59;1034754;28;20379;-73
2023/03/13 02:05:14;;;;;;;13.75;4.03;;;;;;;8.06;100.00;99828.78;1038872;28;20300;-73
2023/03/13 02:05:47;;;;;;;18.92;5.97;;;;;;;8.06;100.00;99829.59;1039486;28;20690;-73
2023/03/13 02:06:19;;;;;;;15.60;5.57;;;;;;;8.07;100.00;99827.75;1035453;28;20312;-73
2023/03/13 02:06:53;;;;;;;13.95;5.72;;;;;;;8.08;100.00;99818.75;1035361;28;20299;-74
2023/03/13 02:07:33;;;;;;;22.83;4.97;;;;;;;8.10;100.00;99822.00;1039197;28;20310;-73
2023/03/13 02:08:12;;;;;;;14.40;4.88;;;;;;;8.15;100.00;99819.47;1043514;28;20291;-74
2023/03/13 02:08:52;;;;;;;17.55;6.35;;;;;;;8.21;100.00;99815.91;1035606;28;20300;-74
2023/03/13 02:09:25;;;;;;;15.07;4.90;;;;;;;8.13;100.00;99810.94;1034686;28;20296;-72
2023/03/13 02:09:57;;;;;;;20.40;7.00;;;;;;;8.11;100.00;99815.66;1036784;28;20063;-73
2023/03/13 02:10:33;;;;;;;19.42;4.53;;;;;;;8.16;100.00;99810.47;1034397;28;20795;-73
2023/03/13 02:11:26;;;;;;;16.05;4.65;;;;;;;8.18;100.00;99802.28;1043241;28;20318;-73
2023/03/13 02:12:09;;;;;;;17.00;3.88;;;;;;;8.11;100.00;99813.00;1043252;28;20848;-74
2023/03/13 02:12:41;;;;;;;14.65;4.07;;;;;;;8.10;100.00;99806.09;1038601;28;20300;-74
2023/03/13 02:13:15;;;;;;;13.73;6.15;;;;;;;8.14;100.00;99806.44;1034053;28;20300;-73
2023/03/13 02:13:47;;;;;;;21.25;5.13;;;;;;;8.15;100.00;99806.22;1035518;28;20664;-73
2023/03/13 02:14:21;;;;;;;13.18;4.95;;;;;;;8.23;100.00;99797.16;1026695;28;20674;-73
2023/03/13 02:14:53;;;;;;;15.07;4.50;;;;;;;8.16;100.00;99794.56;1031258;28;20363;-74
2023/03/13 02:15:26;;;;;;;15.00;4.45;;;;;;;8.22;100.00;99793.69;1030964;28;20309;-74
2023/03/13 02:15:58;;;;;;;14.93;4.60;;;;;;;8.16;100.00;99793.75;1032697;28;20309;-73
2023/03/13 02:16:32;;;;;;;22.35;5.72;;;;;;;8.16;100.00;99789.25;1035375;28;20309;-72
2023/03/13 02:17:04;;;;;;;17.00;4.45;;;;;;;8.28;100.00;99786.66;1034689;28;20308;-73
2023/03/13 02:17:37;;;;;;;13.95;4.97;;;;;;;8.18;100.00;99776.56;1037971;28;20316;-72
2023/03/13 02:18:09;;;;;;;13.05;4.13;;;;;;;8.23;100.00;99775.91;1035159;28;20305;-73
2023/03/13 02:18:40;;;;;;;11.40;4.35;;;;;;;8.15;100.00;99782.34;1031413;28;20312;-73
2023/03/13 02:19:29;;;;;;;15.85;5.43;;;;;;;8.20;100.00;99766.53;1032043;28;20309;-73
2023/03/13 02:20:01;;;;;;;17.98;6.60;;;;;;;8.18;100.00;99781.06;1031849;28;20310;-73
2023/03/13 02:20:33;;;;;;;11.65;4.95;;;;;;;8.10;100.00;99774.25;1036147;28;20827;-74
2023/03/13 02:21:10;;;;;;;18.85;5.60;;;;;;;8.14;100.00;99780.72;1034739;28;20433;-73
2023/03/13 02:22:20;;;;;;;16.15;5.78;;;;;;;8.20;100.00;99773.69;1032616;28;20308;-73
2023/03/13 02:23:29;;;;;;;16.10;4.13;;;;;;;8.23;100.00;99773.28;1029503;28;20352;-73
2023/03/13 02:24:34;;;;;;;13.85;5.30;;;;;;;8.24;100.00;99773.03;1039023;28;20308;-73
2023/03/13 02:25:24;;;;;;;15.38;3.65;;;;;;;8.30;100.00;99774.78;1038690;28;20392;-73
2023/03/13 02:26:00;;;;;;;8.45;3.00;;;;;;;8.25;100.00;99772.00;1047438;28;20298;-73
2023/03/13 02:26:36;;;;;;;15.52;3.72;;;;;;;8.30;100.00;99764.16;1046105;28;20419;-73
2023/03/13 02:27:08;;;;;;;11.80;4.57;;;;;;;8.26;100.00;99768.31;1047372;28;20302;-73
2023/03/13 02:27:44;;;;;;;16.77;4.38;;;;;;;8.26;100.00;99765.66;1042518;28;20307;-73
2023/03/13 02:28:24;;;;;;;7.63;3.40;;;;;;;8.24;100.00;99765.09;1031269;28;20320;-73
2023/03/13 02:28:56;;;;;;;12.02;4.55;;;;;;;8.27;100.00;99766.47;1031198;28;20305;-73
2023/03/13 02:29:28;;;;;;;9.85;3.85;;;;;;;8.25;100.00;99766.69;1033040;28;20528;-73
2023/03/13 02:29:59;;;;;;;16.02;4.65;;;;;;;8.29;100.00;99761.75;1031374;28;20305;-73
2023/03/13 02:30:32;;;;;;;7.97;3.65;;;;;;;8.26;100.00;99757.69;1030421;28;20308;-73
2023/03/13 02:31:04;;;;;;;17.25;4.18;;;;;;;8.23;100.00;99758.16;1031382;28;20338;-73
2023/03/13 02:31:37;;;;;;;11.40;3.33;;;;;;;8.25;100.00;99745.47;1032106;28;20762;-73
2023/03/13 02:32:09;;;;;;;15.25;3.58;;;;;;;8.28;100.00;99745.03;1035167;28;20304;-73
2023/03/13 02:32:41;;;;;;;13.40;4.15;;;;;;;8.29;100.00;99741.31;1034199;28;20313;-73
2023/03/13 02:33:13;;;;;;;12.45;4.50;;;;;;;8.32;100.00;99750.66;1030118;28;20301;-73
2023/03/13 02:33:45;;;;;;;21.30;4.68;;;;;;;8.33;100.00;99742.50;1033077;28;20297;-73
2023/03/13 02:34:22;;;;;;;18.77;4.20;;;;;;;8.34;100.00;99738.81;1039804;28;20312;-73
2023/03/13 02:34:58;;;;;;;14.68;3.92;;;;;;;8.34;100.00;99744.13;1036500;28;20378;-73
2023/03/13 02:35:30;;;;;;;13.35;5.72;;;;;;;8.29;100.00;99743.16;1039134;28;20308;-73
2023/03/13 02:36:04;;;;;;;7.53;4.00;;;;;;;8.33;100.00;99741.69;1031055;28;20305;-73
2023/03/13 02:36:36;;;;;;;16.75;3.78;;;;;;;8.36;100.00;99742.06;1028705;28;20816;-73
2023/03/13 02:37:11;;;;;;;7.65;3.03;;;;;;;8.36;100.00;99733.28;1026903;28;20306;-73
2023/03/13 02:37:47;;;;;;;13.82;4.35;;;;;;;8.32;100.00;99732.09;1032927;28;20311;-73
2023/03/13 02:38:24;;;;;;;16.25;5.47;;;;;;;8.34;100.00;99728.22;1034303;28;20301;-73